Etusivu
METAR-TAF:

METAR-TAF

Lentoasemat :

Grayling Army Airfield

Grayling, Michigan, Yhdysvallat

Leveyspiiri: 44-40-49N, Pituuspiiri: 084-43-44W, korkeus merenpinnasta: 353 m

Tämänhetkinen sää

Tämä raportti tehtiin 1 tunti ja 7 minuuttia sitten, kello 09.58 UTC
Tuuli 7 kn etelästä
Lämpötila 3°C
Kosteus 87%
Ilmanpaine 1014 hPa
Näkyvyys: 16.1 km
Hajanaisia pilviä 7500 ft:n korkeudessa
Pilvistä 9000 ft:n korkeudessa

METAR: KGOV 210958Z AUTO 17007KT 10SM SCT075 OVC090 03/01 A2995 RMK AO2 SLP159 T00320014 $

Aika: 06:05 (11:05 UTC)


TAF: puuttuu

Säähavainnot ja -ennusteet yli 4000 lentoasemalta (METAR- ja TAF-raportit).

Käytössä olevat sääasemat on merkitty karttaan keltaisilla ja punaisilla pisteillä.

Aseta hiiri pisteen päälle nähdäksesi sääaseman nimen.

Klikkaa sitten nähdäksesi säähavainnot ja -ennusteet.

Kartan vaihtaminen: klikkaa mustalla rastilla varustettuja vihreitä pisteitä, niin voit zoomata sisään; viivalla varustettua vihreää pistettä, niin voit zoomata ulos tai vihreitä nuolia, niin pääset viereisille kartoille.


METAR-TAF: